createdAt,value
2019-03-09T00:01:36.500Z,5.30
2019-03-09T00:04:04.099Z,5.40
2019-03-09T00:06:31.677Z,5.40
2019-03-09T00:08:59.528Z,5.40
2019-03-09T00:11:26.933Z,5.30
2019-03-09T00:13:54.379Z,5.40
2019-03-09T00:16:22.071Z,5.30
2019-03-09T00:18:50.278Z,5.30
2019-03-09T00:21:18.062Z,5.10
2019-03-09T00:24:05.703Z,5.30
2019-03-09T00:26:55.568Z,5.30
2019-03-09T00:29:42.543Z,5.20
2019-03-09T00:32:13.761Z,5.30
2019-03-09T00:34:41.417Z,5.30
2019-03-09T00:37:08.873Z,5.20
2019-03-09T00:39:36.733Z,5.20
2019-03-09T00:42:04.345Z,5.30
2019-03-09T00:44:31.818Z,5.20
2019-03-09T00:46:59.597Z,5.20
2019-03-09T00:49:27.789Z,5.30
2019-03-09T00:51:55.167Z,5.30
2019-03-09T00:54:22.604Z,5.30
2019-03-09T00:56:50.774Z,5.20
2019-03-09T00:59:18.157Z,5.30
2019-03-09T01:01:45.579Z,5.30
2019-03-09T01:04:13.483Z,5.20
2019-03-09T01:06:40.810Z,5.30
2019-03-09T01:09:13.797Z,5.20
2019-03-09T01:11:41.148Z,5.30
2019-03-09T01:14:08.690Z,5.30
2019-03-09T01:16:36.070Z,5.30
2019-03-09T01:19:03.668Z,5.30
2019-03-09T01:21:31.058Z,5.20
2019-03-09T01:23:58.482Z,5.10
2019-03-09T01:26:25.863Z,5.20
2019-03-09T01:28:55.328Z,5.10
2019-03-09T01:31:22.654Z,5.10
2019-03-09T01:33:50.324Z,5.00
2019-03-09T01:36:18.080Z,4.90
2019-03-09T01:38:45.451Z,4.90
2019-03-09T01:41:13.714Z,4.80
2019-03-09T01:43:41.460Z,4.80
2019-03-09T01:46:09.093Z,4.70
2019-03-09T01:48:36.525Z,4.70
2019-03-09T01:51:04.093Z,4.70
2019-03-09T01:53:36.797Z,4.70
2019-03-09T01:56:00.964Z,4.70
2019-03-09T01:58:28.829Z,4.70
2019-03-09T02:00:56.322Z,4.70
2019-03-09T02:03:24.218Z,4.60
2019-03-09T02:05:51.921Z,4.70
2019-03-09T02:08:19.695Z,4.60
2019-03-09T02:10:47.697Z,4.60
2019-03-09T02:13:15.064Z,4.70
2019-03-09T02:15:42.531Z,4.50
2019-03-09T02:18:09.939Z,4.50
2019-03-09T02:20:37.704Z,4.50
2019-03-09T02:23:05.503Z,4.60
2019-03-09T02:25:32.855Z,4.50
2019-03-09T02:28:01.097Z,4.30
2019-03-09T02:30:29.618Z,4.30
2019-03-09T02:32:57.212Z,4.30
2019-03-09T02:35:24.673Z,4.20
2019-03-09T02:37:52.377Z,4.10
2019-03-09T02:40:23.244Z,4.20
2019-03-09T02:42:50.736Z,4.10
2019-03-09T02:45:21.838Z,4.10
2019-03-09T02:47:49.579Z,4.10
2019-03-09T02:50:16.961Z,4.00
2019-03-09T02:52:44.389Z,4.00
2019-03-09T02:55:12.291Z,4.00
2019-03-09T02:57:39.631Z,4.20
2019-03-09T03:00:11.541Z,4.30
2019-03-09T03:02:52.850Z,4.20
2019-03-09T03:05:20.323Z,4.30
2019-03-09T03:07:47.671Z,4.40
2019-03-09T03:10:17.121Z,4.40
2019-03-09T03:15:38.741Z,4.50
2019-03-09T03:18:06.328Z,4.50
2019-03-09T03:20:34.617Z,4.40
2019-03-09T03:23:02.314Z,4.40
2019-03-09T03:25:30.186Z,4.50
2019-03-09T03:27:57.666Z,4.60
2019-03-09T03:30:25.186Z,4.60
2019-03-09T03:32:54.781Z,4.60
2019-03-09T03:35:22.654Z,4.60
2019-03-09T03:37:50.424Z,4.80
2019-03-09T03:40:17.826Z,4.90
2019-03-09T03:42:45.654Z,4.90
2019-03-09T03:45:13.160Z,5.00
2019-03-09T03:47:40.983Z,4.90
2019-03-09T03:50:08.630Z,5.00
2019-03-09T03:52:36.407Z,5.10
2019-03-09T03:55:04.259Z,5.20
2019-03-09T03:57:32.233Z,5.10
2019-03-09T04:00:00.038Z,5.10
2019-03-09T04:02:28.392Z,5.10
2019-03-09T04:04:56.056Z,5.20
2019-03-09T04:07:23.583Z,5.10
2019-03-09T04:09:51.156Z,5.20
2019-03-09T04:12:19.191Z,5.10
2019-03-09T04:14:46.546Z,5.10
2019-03-09T04:17:13.999Z,5.00
2019-03-09T04:19:41.488Z,5.10
2019-03-09T04:22:08.954Z,5.10
2019-03-09T04:24:38.462Z,5.00
2019-03-09T04:27:07.518Z,5.10
2019-03-09T04:29:35.252Z,5.20
2019-03-09T04:32:02.638Z,5.30
2019-03-09T04:34:30.586Z,5.30
2019-03-09T04:36:59.932Z,5.30
2019-03-09T04:39:27.425Z,5.30
2019-03-09T04:41:54.898Z,5.40
2019-03-09T04:44:22.335Z,5.40
2019-03-09T04:46:50.903Z,5.40
2019-03-09T04:49:18.558Z,5.40
2019-03-09T04:51:46.907Z,5.50
2019-03-09T04:54:14.600Z,5.60
2019-03-09T04:56:42.722Z,5.60
2019-03-09T04:59:10.649Z,5.70
2019-03-09T05:01:38.496Z,5.70
2019-03-09T05:04:49.978Z,5.70
2019-03-09T05:07:27.292Z,5.80
2019-03-09T05:10:31.808Z,5.80
2019-03-09T05:13:05.960Z,5.90
2019-03-09T05:15:33.687Z,5.90
2019-03-09T05:18:01.339Z,5.90
2019-03-09T05:20:29.165Z,6.00
2019-03-09T05:22:56.487Z,6.00
2019-03-09T05:25:24.381Z,6.00
2019-03-09T05:27:51.812Z,6.10
2019-03-09T05:30:39.363Z,6.10
2019-03-09T05:33:07.395Z,6.10
2019-03-09T05:35:35.159Z,6.10
2019-03-09T05:38:02.476Z,6.10
2019-03-09T05:40:30.169Z,6.10
2019-03-09T05:42:57.842Z,6.10
2019-03-09T05:45:25.580Z,6.10
2019-03-09T05:47:53.329Z,6.00
2019-03-09T05:50:20.709Z,6.00
2019-03-09T05:53:02.004Z,6.00
2019-03-09T05:55:30.163Z,5.90
2019-03-09T05:57:57.947Z,5.90
2019-03-09T06:00:25.321Z,5.80
2019-03-09T06:02:53.145Z,5.80
2019-03-09T06:05:53.344Z,5.60
2019-03-09T06:08:20.952Z,5.50
2019-03-09T06:10:48.370Z,5.50
2019-03-09T06:13:15.839Z,5.40
2019-03-09T06:15:43.284Z,5.40
2019-03-09T06:18:11.416Z,5.40
2019-03-09T06:20:39.305Z,5.40
2019-03-09T06:23:06.647Z,5.30
2019-03-09T06:25:33.985Z,5.30
2019-03-09T06:28:01.744Z,5.30
2019-03-09T06:30:30.018Z,5.30
2019-03-09T06:33:26.867Z,5.30
2019-03-09T06:36:38.197Z,5.30
2019-03-09T06:39:11.142Z,5.20
2019-03-09T06:42:00.790Z,5.20
2019-03-09T06:44:28.465Z,5.20
2019-03-09T06:46:55.926Z,5.10
2019-03-09T06:49:23.630Z,5.20
2019-03-09T06:51:50.961Z,5.20
2019-03-09T06:54:18.276Z,5.20
2019-03-09T06:56:46.072Z,5.20
2019-03-09T06:59:13.721Z,5.20
2019-03-09T07:01:41.051Z,5.20
2019-03-09T07:04:08.392Z,5.20
2019-03-09T07:06:36.443Z,5.10
2019-03-09T07:09:05.557Z,5.20
2019-03-09T07:11:33.043Z,5.10
2019-03-09T07:14:38.695Z,5.10
2019-03-09T07:17:06.054Z,5.10
2019-03-09T07:19:33.721Z,5.10
2019-03-09T07:22:01.609Z,5.20
2019-03-09T07:24:29.036Z,5.30
2019-03-09T07:26:57.341Z,5.30
2019-03-09T07:29:25.149Z,5.30
2019-03-09T07:31:52.591Z,5.60
2019-03-09T07:34:23.922Z,5.80
2019-03-09T07:36:51.270Z,5.90
2019-03-09T07:39:19.036Z,6.00
2019-03-09T07:41:46.512Z,6.10
2019-03-09T07:44:13.919Z,6.10
2019-03-09T07:46:41.713Z,6.30
2019-03-09T07:49:09.041Z,6.30
2019-03-09T07:51:36.442Z,6.40
2019-03-09T07:54:03.790Z,6.30
2019-03-09T07:56:31.870Z,6.40
2019-03-09T07:58:59.364Z,6.50
2019-03-09T08:01:26.800Z,6.60
2019-03-09T08:03:54.529Z,6.60
2019-03-09T08:06:22.181Z,6.60
2019-03-09T08:08:49.660Z,6.60
2019-03-09T08:11:17.696Z,6.60
2019-03-09T08:13:45.097Z,6.80
2019-03-09T08:16:12.839Z,6.80
2019-03-09T08:18:41.019Z,6.90
2019-03-09T08:21:08.912Z,6.90
2019-03-09T08:23:36.372Z,7.10
2019-03-09T08:26:03.794Z,7.30
2019-03-09T08:28:31.999Z,7.30
2019-03-09T08:30:59.417Z,7.30
2019-03-09T08:33:27.223Z,7.20
2019-03-09T08:35:54.716Z,7.30
2019-03-09T08:38:22.628Z,7.30
2019-03-09T08:40:50.464Z,7.20
2019-03-09T08:43:18.183Z,7.20
2019-03-09T08:45:45.629Z,7.30
2019-03-09T08:48:13.050Z,7.30
2019-03-09T08:50:41.323Z,7.40
2019-03-09T08:53:09.019Z,7.40
2019-03-09T08:55:36.483Z,7.40
2019-03-09T08:58:03.947Z,7.50
2019-03-09T09:00:31.765Z,7.60
2019-03-09T09:02:59.660Z,7.60
2019-03-09T09:05:27.826Z,7.60
2019-03-09T09:07:55.336Z,7.70
2019-03-09T09:10:22.788Z,7.80
2019-03-09T09:12:50.537Z,7.80
2019-03-09T09:15:18.018Z,7.80
2019-03-09T09:17:46.083Z,7.70
2019-03-09T09:20:15.114Z,7.70
2019-03-09T09:22:42.570Z,7.80
2019-03-09T09:25:10.375Z,7.80
2019-03-09T09:27:37.818Z,7.80
2019-03-09T09:30:08.190Z,7.90
2019-03-09T09:32:35.611Z,8.00
2019-03-09T09:35:03.687Z,8.00
2019-03-09T09:37:31.200Z,8.10
2019-03-09T09:39:59.049Z,8.20
2019-03-09T09:42:26.405Z,8.10
2019-03-09T09:44:54.205Z,8.20
2019-03-09T09:47:22.151Z,8.30
2019-03-09T09:49:50.440Z,8.30
2019-03-09T09:52:17.838Z,8.50
2019-03-09T09:54:45.661Z,8.70
2019-03-09T09:57:12.984Z,8.80
2019-03-09T09:59:40.433Z,9.00
2019-03-09T10:02:07.802Z,9.10
2019-03-09T10:04:35.499Z,9.10
2019-03-09T10:07:02.940Z,9.20
2019-03-09T10:09:31.124Z,9.60
2019-03-09T10:11:58.960Z,9.50
2019-03-09T10:14:27.114Z,9.50
2019-03-09T10:16:54.540Z,9.50
2019-03-09T10:19:22.644Z,9.40
2019-03-09T10:21:50.170Z,9.50
2019-03-09T10:24:18.928Z,9.50
2019-03-09T10:26:46.798Z,9.30
2019-03-09T10:29:17.312Z,9.20
2019-03-09T10:31:44.780Z,9.30
2019-03-09T10:34:12.254Z,9.20
2019-03-09T10:36:39.872Z,9.30
2019-03-09T10:39:07.783Z,9.40
2019-03-09T10:41:35.860Z,9.40
2019-03-09T10:44:03.601Z,9.50
2019-03-09T10:46:30.975Z,9.50
2019-03-09T10:48:58.375Z,9.30
2019-03-09T10:51:26.077Z,9.40
2019-03-09T10:53:53.452Z,9.40
2019-03-09T10:56:21.214Z,9.50
2019-03-09T10:58:48.917Z,9.50
2019-03-09T11:01:16.344Z,9.50
2019-03-09T11:03:44.347Z,9.60
2019-03-09T11:06:11.761Z,9.70
2019-03-09T11:08:39.553Z,9.70
2019-03-09T11:11:06.999Z,9.80
2019-03-09T11:13:34.855Z,9.70
2019-03-09T11:16:02.641Z,9.60
2019-03-09T11:18:29.992Z,9.70
2019-03-09T11:20:58.148Z,9.70
2019-03-09T11:23:25.532Z,9.60
2019-03-09T11:25:53.243Z,9.70
2019-03-09T11:28:20.590Z,9.80
2019-03-09T11:30:48.410Z,9.70
2019-03-09T11:33:16.183Z,9.80
2019-03-09T11:35:43.549Z,9.70
2019-03-09T11:38:11.113Z,9.80
2019-03-09T11:40:41.476Z,9.80
2019-03-09T11:43:10.609Z,9.80
2019-03-09T11:45:38.808Z,9.80
2019-03-09T11:48:06.136Z,9.80
2019-03-09T11:50:34.466Z,9.80
2019-03-09T11:53:02.266Z,9.80
2019-03-09T11:55:29.667Z,9.80
2019-03-09T11:57:57.097Z,9.70
2019-03-09T12:00:27.139Z,9.80
2019-03-09T12:02:54.834Z,9.60
2019-03-09T12:05:22.291Z,9.70
2019-03-09T12:07:49.662Z,9.70
2019-03-09T12:10:18.972Z,9.60
2019-03-09T12:12:46.499Z,9.60
2019-03-09T12:15:14.365Z,9.60
2019-03-09T12:17:41.874Z,9.60
2019-03-09T12:20:10.825Z,9.60
2019-03-09T12:22:38.400Z,9.60
2019-03-09T12:25:07.169Z,9.50
2019-03-09T12:27:34.737Z,9.40
2019-03-09T12:30:03.958Z,9.10
2019-03-09T12:32:32.018Z,9.00
2019-03-09T12:34:59.502Z,8.90
2019-03-09T12:37:27.426Z,8.80
2019-03-09T12:39:54.907Z,8.70
2019-03-09T12:42:22.261Z,8.70
2019-03-09T12:44:49.754Z,8.80
2019-03-09T12:47:19.020Z,8.80
2019-03-09T12:49:46.530Z,8.70
2019-03-09T12:52:13.916Z,8.70
2019-03-09T12:54:41.652Z,8.80
2019-03-09T12:57:09.905Z,8.80
2019-03-09T12:59:37.744Z,8.90
2019-03-09T13:02:05.385Z,9.00
2019-03-09T13:04:32.795Z,8.90
2019-03-09T13:07:01.000Z,8.90
2019-03-09T13:09:28.375Z,8.90
2019-03-09T13:11:56.980Z,8.90
2019-03-09T13:14:24.426Z,9.00
2019-03-09T13:16:52.794Z,9.10
2019-03-09T13:19:20.157Z,9.30
2019-03-09T13:21:47.587Z,9.20
2019-03-09T13:24:15.263Z,9.20
2019-03-09T13:26:43.232Z,9.30
2019-03-09T13:29:10.701Z,9.30
2019-03-09T13:31:38.456Z,9.30
2019-03-09T13:34:05.875Z,9.30
2019-03-09T13:36:33.249Z,9.40
2019-03-09T13:39:00.702Z,9.40
2019-03-09T13:41:28.576Z,9.30
2019-03-09T13:43:56.768Z,9.40
2019-03-09T13:46:24.573Z,9.50
2019-03-09T13:48:52.171Z,9.40
2019-03-09T13:51:19.960Z,9.30
2019-03-09T13:53:47.834Z,9.40
2019-03-09T13:56:15.283Z,9.50
2019-03-09T13:58:43.431Z,9.60
2019-03-09T14:01:10.831Z,9.50
2019-03-09T14:03:38.823Z,9.70
2019-03-09T14:06:06.555Z,9.80
2019-03-09T14:08:34.379Z,9.90
2019-03-09T14:11:01.899Z,10.00
2019-03-09T14:13:29.739Z,10.00
2019-03-09T14:15:57.300Z,9.90
2019-03-09T14:18:24.727Z,9.90
2019-03-09T14:20:52.188Z,9.90
2019-03-09T14:23:19.974Z,9.80
2019-03-09T14:25:47.379Z,9.70
2019-03-09T14:28:14.844Z,9.60
2019-03-09T14:30:43.163Z,9.50
2019-03-09T14:33:10.943Z,9.60
2019-03-09T14:35:38.389Z,10.00
2019-03-09T14:38:06.178Z,10.00
2019-03-09T14:40:33.961Z,10.10
2019-03-09T14:43:01.432Z,10.20
2019-03-09T14:45:28.879Z,10.00
2019-03-09T14:47:56.345Z,10.20
2019-03-09T14:50:24.580Z,10.30
2019-03-09T14:52:52.037Z,10.30
2019-03-09T14:55:19.556Z,10.30
2019-03-09T14:57:49.221Z,10.30
2019-03-09T15:00:18.209Z,10.30
2019-03-09T15:02:46.056Z,10.30
2019-03-09T15:05:13.468Z,10.30
2019-03-09T15:07:41.207Z,10.20
2019-03-09T15:10:09.435Z,10.30
2019-03-09T15:12:36.800Z,10.30
2019-03-09T15:15:05.483Z,10.30
2019-03-09T15:17:33.184Z,10.30
2019-03-09T15:20:00.612Z,10.50
2019-03-09T15:22:28.438Z,10.40
2019-03-09T15:24:56.449Z,10.40
2019-03-09T15:27:23.897Z,10.40
2019-03-09T15:29:51.379Z,10.40
2019-03-09T15:32:19.539Z,10.50
2019-03-09T15:34:47.785Z,10.60
2019-03-09T15:37:15.149Z,10.40
2019-03-09T15:39:42.932Z,10.40
2019-03-09T15:42:10.393Z,10.30
2019-03-09T15:44:38.199Z,10.30
2019-03-09T15:47:08.234Z,10.30
2019-03-09T15:49:35.954Z,10.20
2019-03-09T15:52:03.526Z,10.40
2019-03-09T15:54:31.402Z,10.60
2019-03-09T15:56:59.321Z,10.60
2019-03-09T15:59:27.376Z,10.70
2019-03-09T16:01:55.177Z,10.50
2019-03-09T16:04:22.953Z,10.40
2019-03-09T16:06:50.294Z,10.20
2019-03-09T16:09:29.787Z,10.00
2019-03-09T16:11:57.250Z,9.80
2019-03-09T16:14:25.045Z,9.60
2019-03-09T16:16:52.561Z,9.50
2019-03-09T16:19:20.142Z,9.30
2019-03-09T16:21:47.545Z,9.30
2019-03-09T16:24:15.687Z,9.20
2019-03-09T16:26:43.145Z,9.10
2019-03-09T16:29:10.671Z,8.90
2019-03-09T16:31:38.411Z,8.80
2019-03-09T16:34:06.445Z,8.70
2019-03-09T16:36:33.942Z,8.50
2019-03-09T16:39:01.339Z,8.30
2019-03-09T16:41:28.737Z,8.20
2019-03-09T16:43:56.115Z,8.10
2019-03-09T16:46:23.531Z,8.00
2019-03-09T16:48:51.227Z,7.80
2019-03-09T16:51:18.633Z,7.80
2019-03-09T16:53:46.359Z,7.80
2019-03-09T16:56:13.892Z,7.80
2019-03-09T16:58:41.358Z,7.70
2019-03-09T17:01:09.047Z,7.80
2019-03-09T17:03:36.389Z,7.80
2019-03-09T17:06:03.912Z,7.80
2019-03-09T17:08:31.652Z,7.80
2019-03-09T17:10:59.119Z,7.80
2019-03-09T17:13:26.979Z,7.70
2019-03-09T17:15:54.401Z,7.60
2019-03-09T17:18:22.285Z,7.60
2019-03-09T17:20:51.504Z,7.50
2019-03-09T17:23:19.608Z,7.50
2019-03-09T17:25:47.846Z,7.40
2019-03-09T17:28:15.366Z,7.50
2019-03-09T17:30:43.445Z,7.60
2019-03-09T17:33:11.351Z,7.60
2019-03-09T17:35:40.568Z,7.70
2019-03-09T17:38:08.349Z,7.80
2019-03-09T17:40:36.089Z,7.90
2019-03-09T17:43:03.935Z,7.90
2019-03-09T17:45:31.582Z,8.00
2019-03-09T17:47:59.700Z,8.00
2019-03-09T17:50:27.505Z,7.90
2019-03-09T17:52:54.978Z,7.80
2019-03-09T17:55:22.648Z,7.80
2019-03-09T17:57:50.434Z,7.50
2019-03-09T18:00:20.355Z,7.20
2019-03-09T18:02:48.374Z,7.10
2019-03-09T18:05:16.578Z,7.00
2019-03-09T18:07:44.354Z,7.10
2019-03-09T18:10:20.957Z,7.10
2019-03-09T18:12:48.555Z,7.30
2019-03-09T18:15:15.967Z,7.40
2019-03-09T18:17:43.611Z,7.40
2019-03-09T18:20:11.473Z,7.40
2019-03-09T18:22:39.439Z,7.50
2019-03-09T18:25:07.278Z,7.50
2019-03-09T18:27:35.363Z,7.60
2019-03-09T18:30:02.869Z,7.60
2019-03-09T18:32:31.210Z,7.60
2019-03-09T18:34:58.634Z,7.50
2019-03-09T18:37:26.656Z,7.60
2019-03-09T18:39:54.824Z,7.60
2019-03-09T18:42:22.523Z,7.60
2019-03-09T18:44:50.304Z,7.50
2019-03-09T18:47:18.156Z,7.50
2019-03-09T18:49:46.011Z,7.40
2019-03-09T18:52:13.610Z,7.40
2019-03-09T18:54:41.024Z,7.60
2019-03-09T18:57:08.467Z,7.60
2019-03-09T18:59:36.096Z,7.70
2019-03-09T19:02:03.582Z,7.80
2019-03-09T19:04:31.224Z,7.70
2019-03-09T19:06:58.623Z,7.90
2019-03-09T19:09:26.466Z,7.90
2019-03-09T19:11:54.124Z,7.80
2019-03-09T19:14:22.045Z,7.40
2019-03-09T19:16:49.941Z,6.10
2019-03-09T19:19:19.892Z,5.30
2019-03-09T19:21:47.300Z,4.90
2019-03-09T19:24:15.105Z,4.70
2019-03-09T19:26:43.075Z,4.60
2019-03-09T19:29:10.778Z,4.60
2019-03-09T19:31:38.575Z,4.70
2019-03-09T19:34:06.262Z,4.80
2019-03-09T19:36:34.385Z,4.90
2019-03-09T19:39:02.332Z,5.00
2019-03-09T19:41:29.987Z,5.10
2019-03-09T19:43:57.623Z,5.20
2019-03-09T19:46:24.987Z,5.40
2019-03-09T19:48:53.110Z,5.60
2019-03-09T19:51:20.997Z,5.70
2019-03-09T19:53:48.420Z,5.80
2019-03-09T19:56:15.868Z,6.00
2019-03-09T19:59:26.236Z,6.00
2019-03-09T20:01:54.551Z,6.00
2019-03-09T20:05:00.697Z,6.00
2019-03-09T20:07:28.389Z,5.90
2019-03-09T20:09:55.873Z,5.90
2019-03-09T20:12:23.276Z,5.80
2019-03-09T20:14:50.737Z,5.80
2019-03-09T20:17:18.525Z,5.70
2019-03-09T20:19:46.478Z,5.70
2019-03-09T20:22:14.064Z,5.70
2019-03-09T20:24:42.012Z,5.70
2019-03-09T20:27:10.061Z,5.80
2019-03-09T20:29:38.075Z,5.70
2019-03-09T20:32:05.613Z,5.60
2019-03-09T20:34:33.414Z,5.60
2019-03-09T20:37:00.874Z,5.60
2019-03-09T20:39:28.902Z,5.60
2019-03-09T20:41:56.421Z,5.60
2019-03-09T20:44:24.333Z,5.50
2019-03-09T20:46:52.012Z,5.60
2019-03-09T20:49:19.808Z,5.60
2019-03-09T20:51:47.753Z,5.50
2019-03-09T20:54:15.207Z,5.40
2019-03-09T20:56:43.269Z,5.50
2019-03-09T20:59:12.173Z,5.50
2019-03-09T21:01:41.301Z,5.60
2019-03-09T21:04:09.256Z,5.60
2019-03-09T21:06:37.491Z,5.50
2019-03-09T21:09:15.713Z,5.50
2019-03-09T21:11:43.801Z,5.60
2019-03-09T21:14:11.359Z,5.60
2019-03-09T21:16:39.272Z,5.70
2019-03-09T21:19:07.688Z,5.60
2019-03-09T21:21:35.289Z,5.60
2019-03-09T21:24:02.817Z,5.60
2019-03-09T21:26:30.689Z,5.50
2019-03-09T21:28:58.314Z,5.50
2019-03-09T21:31:25.899Z,5.50
2019-03-09T21:33:54.091Z,5.40
2019-03-09T21:36:21.776Z,5.50
2019-03-09T21:38:49.319Z,5.50
2019-03-09T21:41:17.013Z,5.40
2019-03-09T21:43:45.231Z,5.40
2019-03-09T21:46:13.135Z,5.30
2019-03-09T21:48:41.168Z,5.30
2019-03-09T21:51:09.389Z,5.30
2019-03-09T21:53:38.040Z,5.30
2019-03-09T21:56:06.555Z,5.10
2019-03-09T21:58:34.703Z,5.00
2019-03-09T22:01:02.438Z,5.10
2019-03-09T22:03:30.317Z,5.20
2019-03-09T22:06:05.711Z,5.10
2019-03-09T22:08:27.171Z,5.10
2019-03-09T22:10:54.779Z,5.20
2019-03-09T22:13:22.363Z,5.00
2019-03-09T22:15:50.368Z,5.00
2019-03-09T22:18:18.363Z,5.00
2019-03-09T22:20:46.126Z,5.10
2019-03-09T22:23:13.643Z,5.00
2019-03-09T22:25:41.553Z,5.00
2019-03-09T22:28:12.864Z,4.90
2019-03-09T22:30:40.447Z,4.80
2019-03-09T22:33:08.403Z,4.70
2019-03-09T22:35:36.391Z,4.60
2019-03-09T22:38:04.263Z,4.70
2019-03-09T22:40:32.053Z,4.70
2019-03-09T22:43:00.084Z,4.70
2019-03-09T22:45:30.428Z,4.80
2019-03-09T22:47:57.959Z,4.80
2019-03-09T22:50:25.522Z,4.70
2019-03-09T22:52:53.433Z,4.80
2019-03-09T22:55:21.062Z,4.80
2019-03-09T22:57:48.815Z,4.80
2019-03-09T23:00:17.431Z,4.80
2019-03-09T23:02:45.307Z,4.90
2019-03-09T23:05:13.667Z,4.90
2019-03-09T23:07:41.234Z,4.90
2019-03-09T23:10:11.071Z,4.80
2019-03-09T23:12:39.098Z,4.90
2019-03-09T23:15:08.176Z,5.00
2019-03-09T23:17:35.685Z,5.10
2019-03-09T23:20:04.121Z,5.00
2019-03-09T23:22:32.013Z,5.00
2019-03-09T23:24:59.989Z,5.10
2019-03-09T23:27:28.026Z,5.10
2019-03-09T23:29:55.576Z,5.00
2019-03-09T23:32:23.615Z,4.90
2019-03-09T23:34:51.597Z,4.90
2019-03-09T23:37:19.396Z,4.90
2019-03-09T23:39:46.807Z,5.00
2019-03-09T23:42:14.621Z,5.10
2019-03-09T23:44:42.038Z,5.00
2019-03-09T23:47:10.059Z,5.00
2019-03-09T23:49:37.619Z,5.10
2019-03-09T23:52:05.159Z,5.00
2019-03-09T23:54:32.666Z,5.00
2019-03-09T23:57:00.109Z,5.10
2019-03-09T23:59:28.251Z,5.10
